Terminal Aerodrome Forecast
Issued by NWS Brownsville, TX

Home | Current Version | Previous Version | Text Only | Print | Product List | Glossary On
Versions: 1 2 3 4 5 6 7 8 9 10 11 12 13 14 15 16 17 18 19 20 21 22 23 24
000
FTUS44 KBRO 291501 AAD
TAFBRO
TAF AMD
KBRO 291501Z 2915/3012 16015G22KT 5SM TSRA OVC030CB
      TEMPO 2915/2916 VRB25G38KT 1SM +TSRA BKN015CB
     FM291800 15017KT P6SM BKN050
     FM300300 13010G16KT P6SM OVC019
     FM300600 14008KT P6SM OVC015=

USA.gov is the U.S. government's official web portal to all federal, state and local government web resources and services.